sensor_id;sensor_type;location;lat;lon;timestamp;P1;durP1;ratioP1;P2;durP2;ratioP2
10645;SDS011;5371;49.782;9.932;2023-03-12T00:00:18;6.83;;;4.00;;
10645;SDS011;5371;49.782;9.932;2023-03-12T00:02:46;10.27;;;4.00;;
10645;SDS011;5371;49.782;9.932;2023-03-12T00:05:13;6.23;;;4.07;;
10645;SDS011;5371;49.782;9.932;2023-03-12T00:07:40;9.93;;;4.37;;
10645;SDS011;5371;49.782;9.932;2023-03-12T00:10:07;6.40;;;4.07;;
10645;SDS011;5371;49.782;9.932;2023-03-12T00:12:35;8.80;;;4.50;;
10645;SDS011;5371;49.782;9.932;2023-03-12T00:15:03;10.20;;;4.83;;
10645;SDS011;5371;49.782;9.932;2023-03-12T00:17:31;8.13;;;4.07;;
10645;SDS011;5371;49.782;9.932;2023-03-12T00:19:58;8.60;;;3.93;;
10645;SDS011;5371;49.782;9.932;2023-03-12T00:22:25;6.23;;;3.70;;
10645;SDS011;5371;49.782;9.932;2023-03-12T00:24:53;7.17;;;4.10;;
10645;SDS011;5371;49.782;9.932;2023-03-12T00:27:21;7.40;;;4.20;;
10645;SDS011;5371;49.782;9.932;2023-03-12T00:29:49;6.90;;;4.00;;
10645;SDS011;5371;49.782;9.932;2023-03-12T00:32:16;4.90;;;3.53;;
10645;SDS011;5371;49.782;9.932;2023-03-12T00:34:48;7.43;;;4.43;;
10645;SDS011;5371;49.782;9.932;2023-03-12T00:37:16;8.60;;;4.13;;
10645;SDS011;5371;49.782;9.932;2023-03-12T00:39:43;8.20;;;4.20;;
10645;SDS011;5371;49.782;9.932;2023-03-12T00:42:10;7.03;;;3.97;;
10645;SDS011;5371;49.782;9.932;2023-03-12T00:44:37;8.50;;;4.13;;
10645;SDS011;5371;49.782;9.932;2023-03-12T00:47:05;5.60;;;3.53;;
10645;SDS011;5371;49.782;9.932;2023-03-12T00:49:32;6.20;;;3.90;;
10645;SDS011;5371;49.782;9.932;2023-03-12T00:52:01;9.03;;;4.03;;
10645;SDS011;5371;49.782;9.932;2023-03-12T00:54:28;6.73;;;3.77;;
10645;SDS011;5371;49.782;9.932;2023-03-12T00:56:55;7.03;;;3.63;;
10645;SDS011;5371;49.782;9.932;2023-03-12T00:59:22;8.93;;;4.17;;
10645;SDS011;5371;49.782;9.932;2023-03-12T01:01:48;7.73;;;3.43;;
10645;SDS011;5371;49.782;9.932;2023-03-12T01:04:15;6.90;;;3.40;;
10645;SDS011;5371;49.782;9.932;2023-03-12T01:06:42;9.43;;;4.50;;
10645;SDS011;5371;49.782;9.932;2023-03-12T01:09:11;7.17;;;4.00;;
10645;SDS011;5371;49.782;9.932;2023-03-12T01:11:38;7.07;;;3.83;;
10645;SDS011;5371;49.782;9.932;2023-03-12T01:14:08;7.80;;;4.03;;
10645;SDS011;5371;49.782;9.932;2023-03-12T01:16:37;7.57;;;4.50;;
10645;SDS011;5371;49.782;9.932;2023-03-12T01:19:04;6.73;;;4.13;;
10645;SDS011;5371;49.782;9.932;2023-03-12T01:21:31;6.73;;;4.00;;
10645;SDS011;5371;49.782;9.932;2023-03-12T01:23:58;7.13;;;3.90;;
10645;SDS011;5371;49.782;9.932;2023-03-12T01:26:26;7.70;;;4.20;;
10645;SDS011;5371;49.782;9.932;2023-03-12T01:28:54;7.23;;;4.47;;
10645;SDS011;5371;49.782;9.932;2023-03-12T01:31:20;10.23;;;4.60;;
10645;SDS011;5371;49.782;9.932;2023-03-12T01:33:48;6.03;;;3.93;;
10645;SDS011;5371;49.782;9.932;2023-03-12T01:36:17;12.57;;;4.50;;
10645;SDS011;5371;49.782;9.932;2023-03-12T01:38:45;8.13;;;4.03;;
10645;SDS011;5371;49.782;9.932;2023-03-12T01:41:12;5.80;;;3.97;;
10645;SDS011;5371;49.782;9.932;2023-03-12T01:43:40;7.37;;;3.83;;
10645;SDS011;5371;49.782;9.932;2023-03-12T01:46:24;9.07;;;4.47;;
10645;SDS011;5371;49.782;9.932;2023-03-12T01:48:56;5.93;;;4.03;;
10645;SDS011;5371;49.782;9.932;2023-03-12T01:51:29;7.47;;;4.13;;
10645;SDS011;5371;49.782;9.932;2023-03-12T01:54:01;6.60;;;3.90;;
10645;SDS011;5371;49.782;9.932;2023-03-12T01:56:33;9.10;;;4.23;;
10645;SDS011;5371;49.782;9.932;2023-03-12T01:59:04;11.27;;;4.43;;
10645;SDS011;5371;49.782;9.932;2023-03-12T02:01:35;5.97;;;4.20;;
10645;SDS011;5371;49.782;9.932;2023-03-12T02:04:03;7.13;;;4.50;;
10645;SDS011;5371;49.782;9.932;2023-03-12T02:06:33;7.47;;;4.33;;
10645;SDS011;5371;49.782;9.932;2023-03-12T02:09:05;8.77;;;4.23;;
10645;SDS011;5371;49.782;9.932;2023-03-12T02:11:32;6.67;;;4.70;;
10645;SDS011;5371;49.782;9.932;2023-03-12T02:14:00;7.03;;;4.43;;
10645;SDS011;5371;49.782;9.932;2023-03-12T02:16:28;6.80;;;4.50;;
10645;SDS011;5371;49.782;9.932;2023-03-12T02:18:55;7.03;;;3.37;;
10645;SDS011;5371;49.782;9.932;2023-03-12T02:21:26;5.13;;;3.27;;
10645;SDS011;5371;49.782;9.932;2023-03-12T02:23:56;6.37;;;3.50;;
10645;SDS011;5371;49.782;9.932;2023-03-12T02:26:32;4.23;;;2.70;;
10645;SDS011;5371;49.782;9.932;2023-03-12T02:29:01;5.53;;;2.60;;
10645;SDS011;5371;49.782;9.932;2023-03-12T02:31:28;5.30;;;2.73;;
10645;SDS011;5371;49.782;9.932;2023-03-12T02:34:00;8.87;;;2.90;;
10645;SDS011;5371;49.782;9.932;2023-03-12T02:36:27;6.47;;;3.73;;
10645;SDS011;5371;49.782;9.932;2023-03-12T02:38:55;9.23;;;4.00;;
10645;SDS011;5371;49.782;9.932;2023-03-12T02:41:23;8.20;;;4.33;;
10645;SDS011;5371;49.782;9.932;2023-03-12T02:43:56;8.40;;;4.57;;
10645;SDS011;5371;49.782;9.932;2023-03-12T02:46:28;8.23;;;4.53;;
10645;SDS011;5371;49.782;9.932;2023-03-12T02:48:59;7.57;;;5.00;;
10645;SDS011;5371;49.782;9.932;2023-03-12T02:51:26;7.37;;;4.87;;
10645;SDS011;5371;49.782;9.932;2023-03-12T02:53:54;10.93;;;5.40;;
10645;SDS011;5371;49.782;9.932;2023-03-12T02:56:21;11.27;;;5.30;;
10645;SDS011;5371;49.782;9.932;2023-03-12T02:58:50;9.67;;;5.30;;
10645;SDS011;5371;49.782;9.932;2023-03-12T03:01:18;8.80;;;5.33;;
10645;SDS011;5371;49.782;9.932;2023-03-12T03:03:46;8.73;;;5.50;;
10645;SDS011;5371;49.782;9.932;2023-03-12T03:06:13;7.63;;;5.23;;
10645;SDS011;5371;49.782;9.932;2023-03-12T03:08:40;9.47;;;5.60;;
10645;SDS011;5371;49.782;9.932;2023-03-12T03:11:07;10.83;;;6.27;;
10645;SDS011;5371;49.782;9.932;2023-03-12T03:13:35;14.17;;;6.30;;
10645;SDS011;5371;49.782;9.932;2023-03-12T03:16:02;11.57;;;6.57;;
10645;SDS011;5371;49.782;9.932;2023-03-12T03:18:31;10.63;;;6.53;;
10645;SDS011;5371;49.782;9.932;2023-03-12T03:20:59;9.50;;;6.40;;
10645;SDS011;5371;49.782;9.932;2023-03-12T03:23:30;10.97;;;6.07;;
10645;SDS011;5371;49.782;9.932;2023-03-12T03:25:58;12.17;;;6.73;;
10645;SDS011;5371;49.782;9.932;2023-03-12T03:28:26;12.93;;;6.67;;
10645;SDS011;5371;49.782;9.932;2023-03-12T03:30:56;11.03;;;6.47;;
10645;SDS011;5371;49.782;9.932;2023-03-12T03:33:28;11.50;;;6.73;;
10645;SDS011;5371;49.782;9.932;2023-03-12T03:35:57;12.80;;;6.80;;
10645;SDS011;5371;49.782;9.932;2023-03-12T03:38:28;13.20;;;7.67;;
10645;SDS011;5371;49.782;9.932;2023-03-12T03:40:59;10.57;;;6.90;;
10645;SDS011;5371;49.782;9.932;2023-03-12T03:43:26;12.07;;;6.50;;
10645;SDS011;5371;49.782;9.932;2023-03-12T03:45:56;9.57;;;7.10;;
10645;SDS011;5371;49.782;9.932;2023-03-12T03:48:25;9.47;;;6.80;;
10645;SDS011;5371;49.782;9.932;2023-03-12T03:50:52;10.47;;;6.33;;
10645;SDS011;5371;49.782;9.932;2023-03-12T03:53:20;10.70;;;6.43;;
10645;SDS011;5371;49.782;9.932;2023-03-12T03:55:48;9.60;;;5.97;;
10645;SDS011;5371;49.782;9.932;2023-03-12T03:58:14;11.30;;;6.07;;
10645;SDS011;5371;49.782;9.932;2023-03-12T04:00:43;8.33;;;5.63;;
10645;SDS011;5371;49.782;9.932;2023-03-12T04:03:10;9.60;;;6.33;;
10645;SDS011;5371;49.782;9.932;2023-03-12T04:05:38;9.63;;;6.27;;
10645;SDS011;5371;49.782;9.932;2023-03-12T04:08:09;7.97;;;5.43;;
10645;SDS011;5371;49.782;9.932;2023-03-12T04:10:38;11.30;;;6.03;;
10645;SDS011;5371;49.782;9.932;2023-03-12T04:13:07;9.27;;;6.03;;
10645;SDS011;5371;49.782;9.932;2023-03-12T04:15:34;8.50;;;5.50;;
10645;SDS011;5371;49.782;9.932;2023-03-12T04:18:02;10.40;;;6.13;;
10645;SDS011;5371;49.782;9.932;2023-03-12T04:20:29;8.63;;;5.97;;
10645;SDS011;5371;49.782;9.932;2023-03-12T04:22:56;12.70;;;5.70;;
10645;SDS011;5371;49.782;9.932;2023-03-12T04:25:26;9.27;;;5.70;;
10645;SDS011;5371;49.782;9.932;2023-03-12T04:27:54;8.50;;;4.90;;
10645;SDS011;5371;49.782;9.932;2023-03-12T04:30:21;10.47;;;5.17;;
10645;SDS011;5371;49.782;9.932;2023-03-12T04:32:48;8.93;;;5.10;;
10645;SDS011;5371;49.782;9.932;2023-03-12T04:35:15;9.17;;;5.00;;
10645;SDS011;5371;49.782;9.932;2023-03-12T04:37:42;9.10;;;5.40;;
10645;SDS011;5371;49.782;9.932;2023-03-12T04:40:10;7.80;;;4.83;;
10645;SDS011;5371;49.782;9.932;2023-03-12T04:42:38;8.77;;;4.80;;
10645;SDS011;5371;49.782;9.932;2023-03-12T04:45:09;8.87;;;5.20;;
10645;SDS011;5371;49.782;9.932;2023-03-12T04:47:40;8.10;;;5.37;;
10645;SDS011;5371;49.782;9.932;2023-03-12T04:50:09;10.80;;;5.57;;
10645;SDS011;5371;49.782;9.932;2023-03-12T04:52:37;11.87;;;5.63;;
10645;SDS011;5371;49.782;9.932;2023-03-12T04:55:06;10.77;;;5.30;;
10645;SDS011;5371;49.782;9.932;2023-03-12T04:57:34;8.53;;;5.53;;
10645;SDS011;5371;49.782;9.932;2023-03-12T05:00:01;8.43;;;5.60;;
10645;SDS011;5371;49.782;9.932;2023-03-12T05:02:36;7.87;;;5.47;;
10645;SDS011;5371;49.782;9.932;2023-03-12T05:05:04;11.47;;;5.87;;
10645;SDS011;5371;49.782;9.932;2023-03-12T05:07:32;10.20;;;5.70;;
10645;SDS011;5371;49.782;9.932;2023-03-12T05:10:00;8.67;;;5.43;;
10645;SDS011;5371;49.782;9.932;2023-03-12T05:12:27;8.80;;;5.80;;
10645;SDS011;5371;49.782;9.932;2023-03-12T05:14:54;8.83;;;5.83;;
10645;SDS011;5371;49.782;9.932;2023-03-12T05:17:21;10.23;;;5.97;;
10645;SDS011;5371;49.782;9.932;2023-03-12T05:19:50;9.87;;;5.43;;
10645;SDS011;5371;49.782;9.932;2023-03-12T05:22:17;8.20;;;5.80;;
10645;SDS011;5371;49.782;9.932;2023-03-12T05:24:44;8.87;;;5.60;;
10645;SDS011;5371;49.782;9.932;2023-03-12T05:27:11;9.10;;;5.97;;
10645;SDS011;5371;49.782;9.932;2023-03-12T05:29:38;11.30;;;6.37;;
10645;SDS011;5371;49.782;9.932;2023-03-12T05:32:05;8.37;;;5.13;;
10645;SDS011;5371;49.782;9.932;2023-03-12T05:34:34;9.20;;;5.50;;
10645;SDS011;5371;49.782;9.932;2023-03-12T05:37:03;8.37;;;5.63;;
10645;SDS011;5371;49.782;9.932;2023-03-12T05:39:30;9.30;;;6.17;;
10645;SDS011;5371;49.782;9.932;2023-03-12T05:42:02;9.40;;;5.80;;
10645;SDS011;5371;49.782;9.932;2023-03-12T05:44:30;10.03;;;6.10;;
10645;SDS011;5371;49.782;9.932;2023-03-12T05:46:59;8.43;;;5.67;;
10645;SDS011;5371;49.782;9.932;2023-03-12T05:49:26;9.33;;;7.00;;
10645;SDS011;5371;49.782;9.932;2023-03-12T05:51:54;12.90;;;6.63;;
10645;SDS011;5371;49.782;9.932;2023-03-12T05:54:23;9.33;;;6.50;;
10645;SDS011;5371;49.782;9.932;2023-03-12T05:56:51;11.70;;;6.57;;
10645;SDS011;5371;49.782;9.932;2023-03-12T05:59:21;8.23;;;5.70;;
10645;SDS011;5371;49.782;9.932;2023-03-12T06:01:50;10.93;;;5.60;;
10645;SDS011;5371;49.782;9.932;2023-03-12T06:04:17;11.67;;;5.57;;
10645;SDS011;5371;49.782;9.932;2023-03-12T06:06:44;9.40;;;5.93;;
10645;SDS011;5371;49.782;9.932;2023-03-12T06:09:12;9.27;;;5.77;;
10645;SDS011;5371;49.782;9.932;2023-03-12T06:11:41;8.00;;;5.73;;
10645;SDS011;5371;49.782;9.932;2023-03-12T06:14:08;10.23;;;6.50;;
10645;SDS011;5371;49.782;9.932;2023-03-12T06:16:35;9.10;;;6.23;;
10645;SDS011;5371;49.782;9.932;2023-03-12T06:19:03;9.33;;;6.10;;
10645;SDS011;5371;49.782;9.932;2023-03-12T06:21:32;10.67;;;6.30;;
10645;SDS011;5371;49.782;9.932;2023-03-12T06:24:02;10.07;;;6.60;;
10645;SDS011;5371;49.782;9.932;2023-03-12T06:26:37;10.80;;;6.10;;
10645;SDS011;5371;49.782;9.932;2023-03-12T06:29:06;11.07;;;5.80;;
10645;SDS011;5371;49.782;9.932;2023-03-12T06:31:32;8.93;;;5.57;;
10645;SDS011;5371;49.782;9.932;2023-03-12T06:33:59;9.33;;;5.00;;
10645;SDS011;5371;49.782;9.932;2023-03-12T06:36:26;9.43;;;5.40;;
10645;SDS011;5371;49.782;9.932;2023-03-12T06:38:54;9.00;;;5.37;;
10645;SDS011;5371;49.782;9.932;2023-03-12T06:41:21;9.73;;;5.67;;
10645;SDS011;5371;49.782;9.932;2023-03-12T06:43:48;9.70;;;5.57;;
10645;SDS011;5371;49.782;9.932;2023-03-12T06:46:17;10.57;;;5.97;;
10645;SDS011;5371;49.782;9.932;2023-03-12T06:48:46;10.27;;;6.33;;
10645;SDS011;5371;49.782;9.932;2023-03-12T06:51:14;9.57;;;5.80;;
10645;SDS011;5371;49.782;9.932;2023-03-12T06:53:42;11.53;;;6.37;;
10645;SDS011;5371;49.782;9.932;2023-03-12T06:56:09;9.80;;;6.30;;
10645;SDS011;5371;49.782;9.932;2023-03-12T06:58:37;9.03;;;6.50;;
10645;SDS011;5371;49.782;9.932;2023-03-12T07:01:04;8.43;;;6.07;;
10645;SDS011;5371;49.782;9.932;2023-03-12T07:03:33;10.53;;;6.40;;
10645;SDS011;5371;49.782;9.932;2023-03-12T07:06:00;10.67;;;6.80;;
10645;SDS011;5371;49.782;9.932;2023-03-12T07:08:27;11.20;;;7.27;;
10645;SDS011;5371;49.782;9.932;2023-03-12T07:10:55;11.67;;;7.13;;
10645;SDS011;5371;49.782;9.932;2023-03-12T07:13:22;12.03;;;6.60;;
10645;SDS011;5371;49.782;9.932;2023-03-12T07:15:49;10.63;;;7.43;;
10645;SDS011;5371;49.782;9.932;2023-03-12T07:18:16;9.40;;;6.83;;
10645;SDS011;5371;49.782;9.932;2023-03-12T07:20:44;10.90;;;7.30;;
10645;SDS011;5371;49.782;9.932;2023-03-12T07:23:12;9.73;;;7.27;;
10645;SDS011;5371;49.782;9.932;2023-03-12T07:25:40;9.70;;;6.67;;
10645;SDS011;5371;49.782;9.932;2023-03-12T07:28:08;10.83;;;7.27;;
10645;SDS011;5371;49.782;9.932;2023-03-12T07:30:35;11.63;;;7.00;;
10645;SDS011;5371;49.782;9.932;2023-03-12T07:33:03;11.90;;;6.70;;
10645;SDS011;5371;49.782;9.932;2023-03-12T07:35:31;10.37;;;7.00;;
10645;SDS011;5371;49.782;9.932;2023-03-12T07:38:00;12.30;;;7.57;;
10645;SDS011;5371;49.782;9.932;2023-03-12T07:40:27;9.20;;;6.27;;
10645;SDS011;5371;49.782;9.932;2023-03-12T07:42:55;7.80;;;6.13;;
10645;SDS011;5371;49.782;9.932;2023-03-12T07:45:22;10.30;;;6.83;;
10645;SDS011;5371;49.782;9.932;2023-03-12T07:47:50;10.53;;;6.93;;
10645;SDS011;5371;49.782;9.932;2023-03-12T07:50:17;10.87;;;6.50;;
10645;SDS011;5371;49.782;9.932;2023-03-12T07:52:44;11.27;;;6.40;;
10645;SDS011;5371;49.782;9.932;2023-03-12T07:55:13;8.87;;;5.73;;
10645;SDS011;5371;49.782;9.932;2023-03-12T07:57:40;9.83;;;5.57;;
10645;SDS011;5371;49.782;9.932;2023-03-12T08:00:08;9.33;;;6.17;;
10645;SDS011;5371;49.782;9.932;2023-03-12T08:02:39;12.20;;;6.17;;
10645;SDS011;5371;49.782;9.932;2023-03-12T08:05:06;10.37;;;6.73;;
10645;SDS011;5371;49.782;9.932;2023-03-12T08:07:34;8.67;;;6.27;;
10645;SDS011;5371;49.782;9.932;2023-03-12T08:10:02;8.67;;;5.73;;
10645;SDS011;5371;49.782;9.932;2023-03-12T08:12:33;11.70;;;6.70;;
10645;SDS011;5371;49.782;9.932;2023-03-12T08:15:01;10.47;;;6.17;;
10645;SDS011;5371;49.782;9.932;2023-03-12T08:17:29;13.53;;;6.20;;
10645;SDS011;5371;49.782;9.932;2023-03-12T08:19:56;9.87;;;6.23;;
10645;SDS011;5371;49.782;9.932;2023-03-12T08:22:23;11.90;;;6.47;;
10645;SDS011;5371;49.782;9.932;2023-03-12T08:24:50;14.43;;;6.50;;
10645;SDS011;5371;49.782;9.932;2023-03-12T08:27:17;11.10;;;6.30;;
10645;SDS011;5371;49.782;9.932;2023-03-12T08:29:45;8.70;;;6.30;;
10645;SDS011;5371;49.782;9.932;2023-03-12T08:32:12;9.70;;;6.00;;
10645;SDS011;5371;49.782;9.932;2023-03-12T08:34:39;12.33;;;6.60;;
10645;SDS011;5371;49.782;9.932;2023-03-12T08:37:06;9.97;;;6.30;;
10645;SDS011;5371;49.782;9.932;2023-03-12T08:39:33;10.83;;;6.53;;
10645;SDS011;5371;49.782;9.932;2023-03-12T08:42:01;9.97;;;6.57;;
10645;SDS011;5371;49.782;9.932;2023-03-12T08:44:28;10.80;;;6.53;;
10645;SDS011;5371;49.782;9.932;2023-03-12T08:46:57;9.70;;;6.47;;
10645;SDS011;5371;49.782;9.932;2023-03-12T08:49:24;10.83;;;6.33;;
10645;SDS011;5371;49.782;9.932;2023-03-12T08:51:51;11.27;;;6.33;;
10645;SDS011;5371;49.782;9.932;2023-03-12T08:54:18;10.30;;;6.40;;
10645;SDS011;5371;49.782;9.932;2023-03-12T08:56:48;9.47;;;6.70;;
10645;SDS011;5371;49.782;9.932;2023-03-12T08:59:16;10.03;;;6.17;;
10645;SDS011;5371;49.782;9.932;2023-03-12T09:01:44;9.83;;;5.90;;
10645;SDS011;5371;49.782;9.932;2023-03-12T09:04:13;7.50;;;5.33;;
10645;SDS011;5371;49.782;9.932;2023-03-12T09:06:40;9.20;;;5.50;;
10645;SDS011;5371;49.782;9.932;2023-03-12T09:09:07;10.03;;;5.70;;
10645;SDS011;5371;49.782;9.932;2023-03-12T09:11:35;9.93;;;5.90;;
10645;SDS011;5371;49.782;9.932;2023-03-12T09:14:05;8.43;;;5.63;;
10645;SDS011;5371;49.782;9.932;2023-03-12T09:16:35;9.67;;;5.87;;
10645;SDS011;5371;49.782;9.932;2023-03-12T09:19:02;11.83;;;6.03;;
10645;SDS011;5371;49.782;9.932;2023-03-12T09:21:30;11.37;;;5.53;;
10645;SDS011;5371;49.782;9.932;2023-03-12T09:23:57;11.17;;;5.53;;
10645;SDS011;5371;49.782;9.932;2023-03-12T09:26:25;9.60;;;6.03;;
10645;SDS011;5371;49.782;9.932;2023-03-12T09:28:52;9.30;;;5.33;;
10645;SDS011;5371;49.782;9.932;2023-03-12T09:31:21;8.07;;;5.47;;
10645;SDS011;5371;49.782;9.932;2023-03-12T09:33:47;7.87;;;4.83;;
10645;SDS011;5371;49.782;9.932;2023-03-12T09:36:15;6.90;;;4.80;;
10645;SDS011;5371;49.782;9.932;2023-03-12T09:38:43;9.77;;;5.23;;
10645;SDS011;5371;49.782;9.932;2023-03-12T09:41:17;8.10;;;4.90;;
10645;SDS011;5371;49.782;9.932;2023-03-12T09:43:48;8.67;;;4.97;;
10645;SDS011;5371;49.782;9.932;2023-03-12T09:46:21;8.10;;;4.93;;
10645;SDS011;5371;49.782;9.932;2023-03-12T09:48:52;7.57;;;4.50;;
10645;SDS011;5371;49.782;9.932;2023-03-12T09:51:25;7.27;;;5.17;;
10645;SDS011;5371;49.782;9.932;2023-03-12T09:53:58;8.93;;;5.40;;
10645;SDS011;5371;49.782;9.932;2023-03-12T09:56:27;9.10;;;5.23;;
10645;SDS011;5371;49.782;9.932;2023-03-12T09:58:55;11.00;;;5.17;;
10645;SDS011;5371;49.782;9.932;2023-03-12T10:01:25;8.23;;;5.20;;
10645;SDS011;5371;49.782;9.932;2023-03-12T10:06:52;7.73;;;5.53;;
10645;SDS011;5371;49.782;9.932;2023-03-12T10:09:28;8.50;;;5.93;;
10645;SDS011;5371;49.782;9.932;2023-03-12T10:12:10;9.93;;;6.00;;
10645;SDS011;5371;49.782;9.932;2023-03-12T10:14:50;10.93;;;6.17;;
10645;SDS011;5371;49.782;9.932;2023-03-12T10:17:29;10.67;;;5.63;;
10645;SDS011;5371;49.782;9.932;2023-03-12T10:20:15;8.27;;;5.70;;
10645;SDS011;5371;49.782;9.932;2023-03-12T10:22:55;12.07;;;6.00;;
10645;SDS011;5371;49.782;9.932;2023-03-12T10:25:33;8.57;;;5.70;;
10645;SDS011;5371;49.782;9.932;2023-03-12T10:28:10;9.43;;;5.80;;
10645;SDS011;5371;49.782;9.932;2023-03-12T10:30:42;9.20;;;5.90;;
10645;SDS011;5371;49.782;9.932;2023-03-12T10:33:15;9.40;;;5.80;;
10645;SDS011;5371;49.782;9.932;2023-03-12T10:35:45;8.37;;;5.70;;
10645;SDS011;5371;49.782;9.932;2023-03-12T10:38:14;9.07;;;5.60;;
10645;SDS011;5371;49.782;9.932;2023-03-12T10:40:47;8.80;;;5.93;;
10645;SDS011;5371;49.782;9.932;2023-03-12T10:43:14;11.70;;;6.03;;
10645;SDS011;5371;49.782;9.932;2023-03-12T10:45:43;9.83;;;5.47;;
10645;SDS011;5371;49.782;9.932;2023-03-12T10:48:18;10.03;;;6.30;;
10645;SDS011;5371;49.782;9.932;2023-03-12T10:50:59;7.70;;;5.57;;
10645;SDS011;5371;49.782;9.932;2023-03-12T10:53:28;13.53;;;5.90;;
10645;SDS011;5371;49.782;9.932;2023-03-12T10:55:59;7.77;;;5.70;;
10645;SDS011;5371;49.782;9.932;2023-03-12T10:58:32;10.97;;;5.63;;
10645;SDS011;5371;49.782;9.932;2023-03-12T11:01:02;8.27;;;5.57;;
10645;SDS011;5371;49.782;9.932;2023-03-12T11:03:31;7.93;;;4.93;;
10645;SDS011;5371;49.782;9.932;2023-03-12T11:05:59;11.20;;;6.17;;
10645;SDS011;5371;49.782;9.932;2023-03-12T11:08:28;9.57;;;5.93;;
10645;SDS011;5371;49.782;9.932;2023-03-12T11:10:58;9.57;;;5.93;;
10645;SDS011;5371;49.782;9.932;2023-03-12T11:13:29;10.40;;;5.40;;
10645;SDS011;5371;49.782;9.932;2023-03-12T11:16:22;8.60;;;5.53;;
10645;SDS011;5371;49.782;9.932;2023-03-12T11:18:53;12.33;;;6.03;;
10645;SDS011;5371;49.782;9.932;2023-03-12T11:21:21;11.37;;;5.90;;
10645;SDS011;5371;49.782;9.932;2023-03-12T11:24:07;13.50;;;5.70;;
10645;SDS011;5371;49.782;9.932;2023-03-12T11:26:38;12.53;;;5.77;;
10645;SDS011;5371;49.782;9.932;2023-03-12T11:29:16;10.23;;;5.80;;
10645;SDS011;5371;49.782;9.932;2023-03-12T11:31:50;10.07;;;5.63;;
10645;SDS011;5371;49.782;9.932;2023-03-12T11:34:29;10.83;;;5.70;;
10645;SDS011;5371;49.782;9.932;2023-03-12T11:37:01;11.27;;;5.50;;
10645;SDS011;5371;49.782;9.932;2023-03-12T11:39:36;12.83;;;5.93;;
10645;SDS011;5371;49.782;9.932;2023-03-12T11:42:18;10.60;;;5.37;;
10645;SDS011;5371;49.782;9.932;2023-03-12T11:45:03;10.13;;;5.80;;
10645;SDS011;5371;49.782;9.932;2023-03-12T11:47:43;8.73;;;5.50;;
10645;SDS011;5371;49.782;9.932;2023-03-12T11:50:24;9.30;;;5.40;;
10645;SDS011;5371;49.782;9.932;2023-03-12T11:53:03;9.53;;;5.20;;
10645;SDS011;5371;49.782;9.932;2023-03-12T11:55:45;7.73;;;5.20;;
10645;SDS011;5371;49.782;9.932;2023-03-12T11:58:28;8.73;;;5.10;;
10645;SDS011;5371;49.782;9.932;2023-03-12T12:01:09;9.00;;;4.90;;
10645;SDS011;5371;49.782;9.932;2023-03-12T12:03:43;12.63;;;5.13;;
10645;SDS011;5371;49.782;9.932;2023-03-12T12:06:26;8.73;;;5.30;;
10645;SDS011;5371;49.782;9.932;2023-03-12T12:09:07;8.53;;;4.70;;
10645;SDS011;5371;49.782;9.932;2023-03-12T12:11:45;8.13;;;4.67;;
10645;SDS011;5371;49.782;9.932;2023-03-12T12:14:27;6.93;;;4.83;;
10645;SDS011;5371;49.782;9.932;2023-03-12T12:17:09;6.23;;;4.40;;
10645;SDS011;5371;49.782;9.932;2023-03-12T12:19:53;7.73;;;4.80;;
10645;SDS011;5371;49.782;9.932;2023-03-12T12:22:35;7.20;;;4.37;;
10645;SDS011;5371;49.782;9.932;2023-03-12T12:25:24;7.50;;;4.60;;
10645;SDS011;5371;49.782;9.932;2023-03-12T12:28:02;7.77;;;4.20;;
10645;SDS011;5371;49.782;9.932;2023-03-12T12:30:54;7.50;;;4.77;;
10645;SDS011;5371;49.782;9.932;2023-03-12T12:33:39;6.70;;;4.73;;
10645;SDS011;5371;49.782;9.932;2023-03-12T12:36:20;7.77;;;4.87;;
10645;SDS011;5371;49.782;9.932;2023-03-12T12:38:52;6.27;;;4.47;;
10645;SDS011;5371;49.782;9.932;2023-03-12T12:41:26;6.40;;;4.70;;
10645;SDS011;5371;49.782;9.932;2023-03-12T12:43:58;6.27;;;4.57;;
10645;SDS011;5371;49.782;9.932;2023-03-12T12:46:29;6.03;;;4.30;;
10645;SDS011;5371;49.782;9.932;2023-03-12T12:49:02;4.97;;;4.20;;
10645;SDS011;5371;49.782;9.932;2023-03-12T12:51:34;4.70;;;4.20;;
10645;SDS011;5371;49.782;9.932;2023-03-12T12:54:06;4.63;;;3.73;;
10645;SDS011;5371;49.782;9.932;2023-03-12T12:56:42;6.37;;;3.90;;
10645;SDS011;5371;49.782;9.932;2023-03-12T12:59:19;7.40;;;4.10;;
10645;SDS011;5371;49.782;9.932;2023-03-12T13:01:54;5.93;;;4.20;;
10645;SDS011;5371;49.782;9.932;2023-03-12T13:04:23;5.53;;;4.37;;
10645;SDS011;5371;49.782;9.932;2023-03-12T13:06:53;4.57;;;3.87;;
10645;SDS011;5371;49.782;9.932;2023-03-12T13:09:39;5.43;;;4.47;;
10645;SDS011;5371;49.782;9.932;2023-03-12T13:12:17;6.43;;;4.27;;
10645;SDS011;5371;49.782;9.932;2023-03-12T13:14:47;5.37;;;4.30;;
10645;SDS011;5371;49.782;9.932;2023-03-12T13:17:20;5.80;;;4.10;;
10645;SDS011;5371;49.782;9.932;2023-03-12T13:19:59;6.33;;;4.27;;
10645;SDS011;5371;49.782;9.932;2023-03-12T13:22:43;7.33;;;4.67;;
10645;SDS011;5371;49.782;9.932;2023-03-12T13:25:24;7.13;;;4.63;;
10645;SDS011;5371;49.782;9.932;2023-03-12T13:27:59;4.50;;;3.97;;
10645;SDS011;5371;49.782;9.932;2023-03-12T13:30:46;5.60;;;3.93;;
10645;SDS011;5371;49.782;9.932;2023-03-12T13:33:17;5.40;;;4.07;;
10645;SDS011;5371;49.782;9.932;2023-03-12T13:36:02;5.87;;;3.60;;
10645;SDS011;5371;49.782;9.932;2023-03-12T13:38:37;4.13;;;3.50;;
10645;SDS011;5371;49.782;9.932;2023-03-12T13:41:32;5.67;;;3.67;;
10645;SDS011;5371;49.782;9.932;2023-03-12T13:47:03;6.47;;;3.58;;
10645;SDS011;5371;49.782;9.932;2023-03-12T13:49:44;4.93;;;3.67;;
10645;SDS011;5371;49.782;9.932;2023-03-12T13:52:18;4.63;;;4.03;;
10645;SDS011;5371;49.782;9.932;2023-03-12T13:54:49;6.78;;;3.90;;
10645;SDS011;5371;49.782;9.932;2023-03-12T13:57:28;6.60;;;3.80;;
10645;SDS011;5371;49.782;9.932;2023-03-12T14:00:00;7.80;;;4.07;;
10645;SDS011;5371;49.782;9.932;2023-03-12T14:02:33;5.97;;;3.63;;
10645;SDS011;5371;49.782;9.932;2023-03-12T14:05:05;7.00;;;3.28;;
10645;SDS011;5371;49.782;9.932;2023-03-12T14:07:40;6.40;;;3.63;;
10645;SDS011;5371;49.782;9.932;2023-03-12T14:10:47;6.77;;;3.20;;
10645;SDS011;5371;49.782;9.932;2023-03-12T14:13:28;6.82;;;3.53;;
10645;SDS011;5371;49.782;9.932;2023-03-12T14:16:05;6.38;;;3.53;;
10645;SDS011;5371;49.782;9.932;2023-03-12T14:18:42;6.47;;;3.10;;
10645;SDS011;5371;49.782;9.932;2023-03-12T14:21:13;7.10;;;3.30;;
10645;SDS011;5371;49.782;9.932;2023-03-12T14:23:43;8.48;;;3.00;;
10645;SDS011;5371;49.782;9.932;2023-03-12T14:26:16;9.50;;;3.38;;
10645;SDS011;5371;49.782;9.932;2023-03-12T14:28:51;6.70;;;3.40;;
10645;SDS011;5371;49.782;9.932;2023-03-12T14:31:23;7.55;;;2.90;;
10645;SDS011;5371;49.782;9.932;2023-03-12T14:33:53;4.93;;;2.67;;
10645;SDS011;5371;49.782;9.932;2023-03-12T14:36:26;6.90;;;2.85;;
10645;SDS011;5371;49.782;9.932;2023-03-12T14:39:07;7.45;;;3.00;;
10645;SDS011;5371;49.782;9.932;2023-03-12T14:41:41;5.50;;;2.33;;
10645;SDS011;5371;49.782;9.932;2023-03-12T14:44:19;6.30;;;2.55;;
10645;SDS011;5371;49.782;9.932;2023-03-12T14:46:54;6.43;;;3.03;;
10645;SDS011;5371;49.782;9.932;2023-03-12T14:49:21;8.18;;;2.72;;
10645;SDS011;5371;49.782;9.932;2023-03-12T14:51:49;6.10;;;2.78;;
10645;SDS011;5371;49.782;9.932;2023-03-12T14:54:17;5.63;;;2.40;;
10645;SDS011;5371;49.782;9.932;2023-03-12T14:56:47;7.50;;;2.70;;
10645;SDS011;5371;49.782;9.932;2023-03-12T14:59:22;8.95;;;2.95;;
10645;SDS011;5371;49.782;9.932;2023-03-12T15:01:53;9.00;;;2.72;;
10645;SDS011;5371;49.782;9.932;2023-03-12T15:04:27;11.70;;;2.92;;
10645;SDS011;5371;49.782;9.932;2023-03-12T15:06:57;6.50;;;2.80;;
10645;SDS011;5371;49.782;9.932;2023-03-12T15:09:29;5.65;;;2.60;;
10645;SDS011;5371;49.782;9.932;2023-03-12T15:11:59;7.13;;;3.28;;
10645;SDS011;5371;49.782;9.932;2023-03-12T15:14:29;8.27;;;2.85;;
10645;SDS011;5371;49.782;9.932;2023-03-12T15:16:59;6.72;;;3.95;;
10645;SDS011;5371;49.782;9.932;2023-03-12T15:19:29;7.40;;;3.50;;
10645;SDS011;5371;49.782;9.932;2023-03-12T15:22:02;6.53;;;4.57;;
10645;SDS011;5371;49.782;9.932;2023-03-12T15:24:32;9.50;;;4.53;;